Home > Products > Valid Products > TAF

000
FTUS43 KDVN 072339
TAFDBQ
TAF
KDBQ 072339Z 0800/0824 27015KT P6SM BKN120
     FM080400 29016G25KT P6SM VCSH SCT025 OVC035
      TEMPO 0804/0808 5SM -SN BKN020 OVC030
     FM080800 31017G27KT 5SM -SHSN SCT009 OVC020
     FM081500 32019G29KT 3SM -SHSN OVC015=



000
FTUS43 KDVN 072339
TAFMLI
TAF
KMLI 072339Z 0800/0824 28011KT P6SM FEW040 BKN120
     FM080500 29014G23KT P6SM VCSH SCT025 OVC035
      TEMPO 0805/0809 5SM -SN BKN020 OVC030
     FM080900 31015G24KT 5SM -SHSN SCT009 OVC020
     FM081600 32016G26KT 3SM -SHSN OVC015=



000
FTUS43 KDVN 072339
TAFCID
TAF
KCID 072339Z 0800/0824 27012KT P6SM BKN120
     FM080400 29017G28KT P6SM VCSH SCT025 OVC035
      TEMPO 0804/0808 5SM -SN BKN020 OVC030
     FM080800 31020G30KT 5SM -SHSN SCT009 OVC020
     FM081500 32022G32KT 3SM -SHSN OVC015=



000
FTUS43 KDVN 072339
TAFDBQ
TAF
KDBQ 072339Z 0800/0824 27015KT P6SM BKN120
     FM080400 29016G25KT P6SM VCSH SCT025 OVC035
      TEMPO 0804/0808 5SM -SN BKN020 OVC030
     FM080800 31017G27KT 5SM -SHSN SCT009 OVC020
     FM081500 32019G29KT 3SM -SHSN OVC015=



000
FTUS43 KDVN 072339
TAFCID
TAF
KCID 072339Z 0800/0824 27012KT P6SM BKN120
     FM080400 29017G28KT P6SM VCSH SCT025 OVC035
      TEMPO 0804/0808 5SM -SN BKN020 OVC030
     FM080800 31020G30KT 5SM -SHSN SCT009 OVC020
     FM081500 32022G32KT 3SM -SHSN OVC015=



000
FTUS43 KDVN 072339
TAFBRL
TAF
KBRL 072339Z 0800/0824 30011KT P6SM BKN120
     FM080500 29013G22KT P6SM VCSH SCT025 OVC035
      TEMPO 0805/0809 5SM -SN BKN020 OVC030
     FM080900 31014G23KT 5SM -SHSN SCT009 OVC020
     FM081600 32015G25KT 3SM -SHSN OVC015=



000
FTUS43 KDVN 072339
TAFBRL
TAF
KBRL 072339Z 0800/0824 30011KT P6SM BKN120
     FM080500 29013G22KT P6SM VCSH SCT025 OVC035
      TEMPO 0805/0809 5SM -SN BKN020 OVC030
     FM080900 31014G23KT 5SM -SHSN SCT009 OVC020
     FM081600 32015G25KT 3SM -SHSN OVC015=



000
FTUS43 KDVN 072339
TAFMLI
TAF
KMLI 072339Z 0800/0824 28011KT P6SM FEW040 BKN120
     FM080500 29014G23KT P6SM VCSH SCT025 OVC035
      TEMPO 0805/0809 5SM -SN BKN020 OVC030
     FM080900 31015G24KT 5SM -SHSN SCT009 OVC020
     FM081600 32016G26KT 3SM -SHSN OVC015=



000
FTUS43 KDVN 071720
TAFBRL
TAF
KBRL 071720Z 0718/0818 28014G22KT P6SM SKC
     FM080000 28017G23KT P6SM OVC050
     FM080800 30017G26KT 6SM -SHSN BR SCT009 OVC018=



000
FTUS43 KDVN 071720
TAFDBQ
TAF
KDBQ 071720Z 0718/0818 29018G24KT P6SM SCT080 BKN120
     FM080300 29018G30KT 6SM -SHSN SCT020 OVC035
     FM080600 31022G30KT 6SM -SHSN SCT009 OVC018
      TEMPO 0806/0810 2SM -SN BLSN OVC010
     FM081500 32022G32KT 5SM -SHSN OVC010=



000
FTUS43 KDVN 071720
TAFCID
TAF
KCID 071720Z 0718/0818 29018G24KT P6SM SCT080 BKN120
     FM080300 29018G30KT 6SM -SHSN SCT020 OVC035
     FM080600 31022G30KT 6SM -SHSN SCT009 OVC018
     FM081500 32022G32KT 6SM -SHSN OVC015=



000
FTUS43 KDVN 071720
TAFMLI
TAF
KMLI 071720Z 0718/0818 28017G22KT P6SM SCT110
     FM080500 28017G23KT 6SM -SHSN BR SCT012 OVC035
     FM080800 30017G26KT 6SM -SHSN BR SCT009 OVC018=



000
FTUS43 KDVN 071144
TAFCID
TAF
KCID 071144Z 0712/0812 22011KT P6SM SCT110
     FM071800 28014G22KT P6SM SCT050
     FM080100 27012G18KT 5SM BR VCSH OVC025
     FM080300 29016G25KT 2SM -SHSN BR SCT007 OVC012
     FM080600 31022G30KT 5SM -SHSN BR SCT009 OVC018=



000
FTUS43 KDVN 071144
TAFDBQ
TAF
KDBQ 071144Z 0712/0812 23016KT P6SM SCT110
     FM071700 25014KT P6SM SCT050
     FM080300 27012G18KT 5SM -SHSN BR SCT012 OVC025
     FM080600 29016G23KT 3SM -SHSN BR SCT007 OVC012
     FM080900 31017G26KT 5SM BR VCSH SCT009 OVC018=



000
FTUS43 KDVN 071144
TAFMLI
TAF
KMLI 071144Z 0712/0812 22011KT P6SM SCT110
     FM071800 28014G22KT P6SM SCT050
     FM080300 26012G18KT 5SM BR VCSH OVC025
     FM080500 27015G23KT 3SM -SHSN BR SCT007 OVC012
     FM080800 29017G26KT 5SM -SHSN BR SCT009 OVC018=



000
FTUS43 KDVN 071144
TAFBRL
TAF
KBRL 071144Z 0712/0812 22011KT P6SM SCT110
     FM071800 28013G18KT P6SM SCT050
     FM080500 28011G16KT 5SM BR VCSH OVC025
     FM080900 29014G22KT 3SM -SHSN BR SCT007 OVC012
     FM081000 30016G24KT 5SM -SHSN BR SCT009 OVC018=



000
FTUS43 KDVN 070540
TAFDBQ
TAF
KDBQ 070540Z 0706/0806 20009KT P6SM OVC110
     FM071800 27015G25KT 6SM HZ BKN040
     FM080200 30017G27KT P6SM VCSH OVC030 PROB30 0802/0806 2SM -SN
      BR OVC020=



000
FTUS43 KDVN 070540
TAFBRL
TAF
KBRL 070540Z 0706/0806 21007KT P6SM SKC
     FM071900 27013G21KT P6SM BKN040
     FM080400 30015G25KT P6SM VCSH OVC030 PROB30 0804/0806 2SM -SN
      BR OVC020=



000
FTUS43 KDVN 070540
TAFMLI
TAF
KMLI 070540Z 0706/0806 21007KT P6SM SKC
     FM071900 27014G22KT P6SM BKN040
     FM080400 30015G25KT P6SM VCSH OVC030 PROB30 0804/0806 2SM -SN
      BR OVC020=



000
FTUS43 KDVN 070540
TAFCID
TAF
KCID 070540Z 0706/0806 20011KT P6SM FEW110 BKN200
     FM071800 28016G26KT 6SM HZ BKN040
     FM080200 30017G27KT P6SM VCSH OVC030 PROB30 0802/0806 2SM -SN
      BR OVC020=



000
FTUS43 KDVN 070540
TAFDBQ
TAF
KDBQ 070540Z 0706/0806 20009KT P6SM OVC110
     FM071800 27015G25KT 6SM HZ BKN040
     FM080200 30017G27KT P6SM VCSH OVC030 PROB30 0802/0806 2SM -SN
      BR OVC020=



000
FTUS43 KDVN 070540
TAFCID
TAF
KCID 070540Z 0706/0806 20011KT P6SM FEW110 BKN200
     FM071800 28016G26KT 6SM HZ BKN040
     FM080200 30017G27KT P6SM VCSH OVC030 PROB30 0802/0806 2SM -SN
      BR OVC020=



000
FTUS43 KDVN 070540
TAFBRL
TAF
KBRL 070540Z 0706/0806 21007KT P6SM SKC
     FM071900 27013G21KT P6SM BKN040
     FM080400 30015G25KT P6SM VCSH OVC030 PROB30 0804/0806 2SM -SN
      BR OVC020=



000
FTUS43 KDVN 070540
TAFMLI
TAF
KMLI 070540Z 0706/0806 21007KT P6SM SKC
     FM071900 27014G22KT P6SM BKN040
     FM080400 30015G25KT P6SM VCSH OVC030 PROB30 0804/0806 2SM -SN
      BR OVC020=



000
FTUS43 KDVN 062332
TAFCID
TAF
KCID 062332Z 0700/0724 25007KT P6SM SCT200
     FM070500 23012G18KT P6SM BKN200
     FM071800 28016G26KT 6SM HZ BKN040=



000
FTUS43 KDVN 062332
TAFDBQ
TAF
KDBQ 062332Z 0700/0724 23008KT P6SM SCT200
      TEMPO 0700/0702 BKN008
     FM070600 24012G18KT P6SM BKN200
     FM071800 27015G25KT 6SM HZ BKN040=



000
FTUS43 KDVN 062332
TAFBRL
TAF
KBRL 062332Z 0700/0724 25007KT P6SM SCT200
     FM070600 24010G17KT P6SM BKN200
     FM071900 27013G21KT P6SM BKN040=



000
FTUS43 KDVN 062332
TAFBRL
TAF
KBRL 062332Z 0700/0724 25007KT P6SM SCT200
     FM070600 24010G17KT P6SM BKN200
     FM071900 27013G21KT P6SM BKN040=



000
FTUS43 KDVN 062332
TAFCID
TAF
KCID 062332Z 0700/0724 25007KT P6SM SCT200
     FM070500 23012G18KT P6SM BKN200
     FM071800 28016G26KT 6SM HZ BKN040=



000
FTUS43 KDVN 062332
TAFDBQ
TAF
KDBQ 062332Z 0700/0724 23008KT P6SM SCT200
      TEMPO 0700/0702 BKN008
     FM070600 24012G18KT P6SM BKN200
     FM071800 27015G25KT 6SM HZ BKN040=



000
FTUS43 KDVN 062332
TAFMLI
TAF
KMLI 062332Z 0700/0724 24006KT P6SM SCT200
     FM070600 24010G17KT P6SM BKN200
     FM071900 27014G22KT P6SM BKN040=



000
FTUS43 KDVN 062332
TAFMLI
TAF
KMLI 062332Z 0700/0724 24006KT P6SM SCT200
     FM070600 24010G17KT P6SM BKN200
     FM071900 27014G22KT P6SM BKN040=



000
FTUS43 KDVN 062112 AAA
TAFCID
TAF AMD
KCID 062112Z 0621/0718 24007KT P6SM SCT007 BKN015
      TEMPO 0621/0623 SCT015
     FM062300 23009KT P6SM SCT015 SCT200
     FM070300 23013KT P6SM BKN200=



000
FTUS43 KDVN 062112 AAA
TAFCID
TAF AMD
KCID 062112Z 0621/0718 24007KT P6SM SCT007 BKN015
      TEMPO 0621/0623 SCT015
     FM062300 23009KT P6SM SCT015 SCT200
     FM070300 23013KT P6SM BKN200=



000
FTUS43 KDVN 061841 AAA
TAFDBQ
TAF AMD
KDBQ 061841Z 0619/0718 23010KT 6SM BR OVC006
     FM062000 22009KT P6SM BKN008
     FM070000 22013KT P6SM BKN080
     FM070600 24012KT 6SM BR BKN200=



000
FTUS43 KDVN 061841 AAA
TAFDBQ
TAF AMD
KDBQ 061841Z 0619/0718 23010KT 6SM BR OVC006
     FM062000 22009KT P6SM BKN008
     FM070000 22013KT P6SM BKN080
     FM070600 24012KT 6SM BR BKN200=



000
FTUS43 KDVN 061720
TAFMLI
TAF
KMLI 061720Z 0618/0718 25008KT P6SM SKC
     FM070600 22012KT P6SM SCT200=



000
FTUS43 KDVN 061720
TAFCID
TAF
KCID 061720Z 0618/0718 24007KT 6SM BR SCT007 BKN012
      TEMPO 0618/0620 5SM BR BKN007
     FM062200 23009KT P6SM SCT015 SCT200
     FM070300 23013KT P6SM BKN200=



000
FTUS43 KDVN 061720
TAFBRL
TAF
KBRL 061720Z 0618/0718 25008KT P6SM SKC
     FM070600 22012KT P6SM SCT200=



000
FTUS43 KDVN 061720
TAFDBQ
TAF
KDBQ 061720Z 0618/0718 23010KT 5SM BR OVC005
     FM062000 22009KT P6SM BKN008
     FM070000 22013KT P6SM BKN080
     FM070600 24012KT 6SM BR BKN200=



000
FTUS43 KDVN 061659 AAC
TAFDBQ
TAF AMD
KDBQ 061659Z 0617/0712 23010KT 5SM BR OVC005
     FM062000 22009KT P6SM BKN008
     FM070300 22013G18KT P6SM BKN080=



000
FTUS43 KDVN 061659 AAC
TAFDBQ
TAF AMD
KDBQ 061659Z 0617/0712 23010KT 5SM BR OVC005
     FM062000 22009KT P6SM BKN008
     FM070300 22013G18KT P6SM BKN080=



000
FTUS43 KDVN 061631 AAB
TAFCID
TAF AMD
KCID 061631Z 0617/0712 28005KT 5SM BR OVC008
     FM061900 26007KT 6SM BR BKN010
     FM062200 23009KT P6SM SCT015 SCT150
     FM070300 22011KT P6SM BKN100=



000
FTUS43 KDVN 061631 AAB
TAFCID
TAF AMD
KCID 061631Z 0617/0712 28005KT 5SM BR OVC008
     FM061900 26007KT 6SM BR BKN010
     FM062200 23009KT P6SM SCT015 SCT150
     FM070300 22011KT P6SM BKN100=



000
FTUS43 KDVN 061501 AAA
TAFCID
TAF AMD
KCID 061501Z 0615/0712 21005KT P6SM OVC010
      TEMPO 0615/0618 OVC009
     FM062000 23009KT P6SM SCT015 SCT150
     FM070300 22011KT P6SM BKN100=



000
FTUS43 KDVN 061501 AAA
TAFCID
TAF AMD
KCID 061501Z 0615/0712 21005KT P6SM OVC010
      TEMPO 0615/0618 OVC009
     FM062000 23009KT P6SM SCT015 SCT150
     FM070300 22011KT P6SM BKN100=



000
FTUS43 KDVN 061407 AAB
TAFDBQ
TAF AMD
KDBQ 061407Z 0614/0712 20006KT P6SM OVC009
     FM062000 22009KT P6SM SCT015 SCT150
     FM070300 22013G18KT P6SM BKN080=



000
FTUS43 KDVN 061326 AAA
TAFMLI
TAF AMD
KMLI 061326Z 0613/0712 23005KT P6SM SCT020
     FM061700 23007KT P6SM SCT020 SCT150
     FM070300 22009KT P6SM BKN090=



000
FTUS43 KDVN 061326 AAA
TAFMLI
TAF AMD
KMLI 061326Z 0613/0712 23005KT P6SM SCT020
     FM061700 23007KT P6SM SCT020 SCT150
     FM070300 22009KT P6SM BKN090=



000
FTUS43 KDVN 061326 AAA
TAFDBQ
TAF AMD
KDBQ 061326Z 0613/0712 20006KT P6SM OVC015
     FM062000 22009KT P6SM SCT015 SCT150
     FM070300 22013G18KT P6SM BKN080=



000
FTUS43 KDVN 061326 AAA
TAFDBQ
TAF AMD
KDBQ 061326Z 0613/0712 20006KT P6SM OVC015
     FM062000 22009KT P6SM SCT015 SCT150
     FM070300 22013G18KT P6SM BKN080=



000
FTUS43 KDVN 061147
TAFDBQ
TAF
KDBQ 061147Z 0612/0712 20006KT P6SM OVC020
     FM062000 22009KT P6SM SCT015 SCT150
     FM070300 22013G18KT P6SM BKN080=



000
FTUS43 KDVN 061147
TAFMLI
TAF
KMLI 061147Z 0612/0712 23005KT P6SM OVC025
     FM061700 23007KT P6SM SCT020 SCT150
     FM070300 22009KT P6SM BKN090=



000
FTUS43 KDVN 061147
TAFBRL
TAF
KBRL 061147Z 0612/0712 19004KT P6SM SCT030
     FM061700 22007KT P6SM SCT025
     FM070300 21009KT P6SM BKN090=



000
FTUS43 KDVN 061147
TAFCID
TAF
KCID 061147Z 0612/0712 19003KT P6SM OVC018
     FM061900 23009KT P6SM SCT015 SCT150
     FM070300 22011KT P6SM BKN100=



000
FTUS43 KDVN 061147
TAFBRL
TAF
KBRL 061147Z 0612/0712 19004KT P6SM SCT030
     FM061700 22007KT P6SM SCT025
     FM070300 21009KT P6SM BKN090=



000
FTUS43 KDVN 061147
TAFDBQ
TAF
KDBQ 061147Z 0612/0712 20006KT P6SM OVC020
     FM062000 22009KT P6SM SCT015 SCT150
     FM070300 22013G18KT P6SM BKN080=



000
FTUS43 KDVN 061147
TAFMLI
TAF
KMLI 061147Z 0612/0712 23005KT P6SM OVC025
     FM061700 23007KT P6SM SCT020 SCT150
     FM070300 22009KT P6SM BKN090=



000
FTUS43 KDVN 061147
TAFCID
TAF
KCID 061147Z 0612/0712 19003KT P6SM OVC018
     FM061900 23009KT P6SM SCT015 SCT150
     FM070300 22011KT P6SM BKN100=



000
FTUS43 KDVN 060716 AAA
TAFCID
TAF AMD
KCID 060716Z 0607/0706 18005KT P6SM OVC025
     FM060900 21005KT 6SM BR BKN012 OVC020
     FM061900 23009KT P6SM SCT020 BKN150=



000
FTUS43 KDVN 060716 AAA
TAFCID
TAF AMD
KCID 060716Z 0607/0706 18005KT P6SM OVC025
     FM060900 21005KT 6SM BR BKN012 OVC020
     FM061900 23009KT P6SM SCT020 BKN150=



000
FTUS43 KDVN 060545
TAFDBQ
TAF
KDBQ 060545Z 0606/0706 18004KT P6SM OVC050
     FM061200 21005KT 6SM BR BKN015 OVC025
     FM062000 23010KT P6SM SCT020 BKN150=



000
FTUS43 KDVN 060545
TAFCID
TAF
KCID 060545Z 0606/0706 17005KT P6SM OVC040
     FM060900 21005KT 6SM BR BKN012 OVC025
     FM061900 23009KT P6SM SCT020 BKN150=



000
FTUS43 KDVN 060545
TAFBRL
TAF
KBRL 060545Z 0606/0706 17004KT P6SM OVC050
     FM061400 21006KT P6SM SCT015 BKN025
     FM062000 24009KT P6SM SCT025 BKN150=



000
FTUS43 KDVN 060545
TAFMLI
TAF
KMLI 060545Z 0606/0706 18004KT P6SM OVC040
     FM061400 22006KT P6SM SCT015 BKN025
     FM062000 23009KT P6SM SCT025 BKN150=



000
FTUS43 KDVN 060545
TAFCID
TAF
KCID 060545Z 0606/0706 17005KT P6SM OVC040
     FM060900 21005KT 6SM BR BKN012 OVC025
     FM061900 23009KT P6SM SCT020 BKN150=



000
FTUS43 KDVN 060545
TAFDBQ
TAF
KDBQ 060545Z 0606/0706 18004KT P6SM OVC050
     FM061200 21005KT 6SM BR BKN015 OVC025
     FM062000 23010KT P6SM SCT020 BKN150=



000
FTUS43 KDVN 060545
TAFBRL
TAF
KBRL 060545Z 0606/0706 17004KT P6SM OVC050
     FM061400 21006KT P6SM SCT015 BKN025
     FM062000 24009KT P6SM SCT025 BKN150=



000
FTUS43 KDVN 060545
TAFMLI
TAF
KMLI 060545Z 0606/0706 18004KT P6SM OVC040
     FM061400 22006KT P6SM SCT015 BKN025
     FM062000 23009KT P6SM SCT025 BKN150=



000
FTUS43 KDVN 052343
TAFBRL
TAF
KBRL 052343Z 0600/0624 17005KT P6SM BKN100
     FM060900 21005KT 6SM BR OVC040
     FM061600 23007KT P6SM SCT035 BKN150=



000
FTUS43 KDVN 052343
TAFCID
TAF
KCID 052343Z 0600/0624 17005KT P6SM OVC050
     FM060900 21004KT 4SM BR BKN020
     FM061700 23011KT 6SM BR SCT020 BKN150=



000
FTUS43 KDVN 052343
TAFMLI
TAF
KMLI 052343Z 0600/0624 23005KT P6SM OVC070
     FM060300 17005KT 6SM BR OVC040
     FM061600 23007KT P6SM SCT035 BKN150=



000
FTUS43 KDVN 052343
TAFDBQ
TAF
KDBQ 052343Z 0600/0624 24005KT P6SM OVC090
     FM060300 17005KT 6SM BR OVC050
     FM061100 22005KT 5SM BR BKN015
     FM061800 23011KT 6SM BR SCT020 BKN150=



000
FTUS43 KDVN 052343
TAFDBQ
TAF
KDBQ 052343Z 0600/0624 24005KT P6SM OVC090
     FM060300 17005KT 6SM BR OVC050
     FM061100 22005KT 5SM BR BKN015
     FM061800 23011KT 6SM BR SCT020 BKN150=



000
FTUS43 KDVN 052343
TAFCID
TAF
KCID 052343Z 0600/0624 17005KT P6SM OVC050
     FM060900 21004KT 4SM BR BKN020
     FM061700 23011KT 6SM BR SCT020 BKN150=



000
FTUS43 KDVN 052343
TAFBRL
TAF
KBRL 052343Z 0600/0624 17005KT P6SM BKN100
     FM060900 21005KT 6SM BR OVC040
     FM061600 23007KT P6SM SCT035 BKN150=



000
FTUS43 KDVN 052343
TAFMLI
TAF
KMLI 052343Z 0600/0624 23005KT P6SM OVC070
     FM060300 17005KT 6SM BR OVC040
     FM061600 23007KT P6SM SCT035 BKN150=



000
FTUS43 KDVN 051730
TAFBRL
TAF
KBRL 051730Z 0518/0618 23005KT P6SM SCT100 BKN200
     FM060500 15004KT P6SM BKN050
     FM060900 19005KT P6SM BKN040=



000
FTUS43 KDVN 051730
TAFDBQ
TAF
KDBQ 051730Z 0518/0618 24005KT P6SM SCT100 BKN200
     FM060300 20005KT 5SM -SHSN OVC030
     FM060600 21006KT P6SM OVC025
     FM061200 22005KT 5SM BR BKN015=



000
FTUS43 KDVN 051730
TAFCID
TAF
KCID 051730Z 0518/0618 24005KT P6SM SCT100 BKN200
     FM060100 18006KT 5SM -SHSN SCT010 OVC035
     FM060500 20005KT P6SM OVC035
     FM060900 20004KT 4SM BR BKN020=



000
FTUS43 KDVN 051730
TAFMLI
TAF
KMLI 051730Z 0518/0618 25005KT P6SM SCT100 BKN200
     FM060500 VRB04KT P6SM VCSH SCT020 OVC040
     FM060900 20004KT 6SM BR BKN025
     FM061600 23007KT P6SM BKN035=



000
FTUS43 KDVN 051522 AAC
TAFDBQ
TAF AMD
KDBQ 051522Z 0515/0612 29005KT 5SM BR BKN200
     FM051600 28005KT P6SM SCT100 BKN200
     FM060500 20007KT 5SM -SHSN OVC030
     FM060900 21009KT P6SM OVC025=



000
FTUS43 KDVN 051522 AAC
TAFDBQ
TAF AMD
KDBQ 051522Z 0515/0612 29005KT 5SM BR BKN200
     FM051600 28005KT P6SM SCT100 BKN200
     FM060500 20007KT 5SM -SHSN OVC030
     FM060900 21009KT P6SM OVC025=



000
FTUS43 KDVN 051518 AAB
TAFMLI
TAF AMD
KMLI 051518Z 0515/0612 30006KT P6SM SCT020 BKN200
      TEMPO 0515/0516 BKN020
     FM060500 VRB04KT P6SM VCSH OVC030
     FM060900 19005KT P6SM OVC025=



000
FTUS43 KDVN 051518 AAB
TAFMLI
TAF AMD
KMLI 051518Z 0515/0612 30006KT P6SM SCT020 BKN200
      TEMPO 0515/0516 BKN020
     FM060500 VRB04KT P6SM VCSH OVC030
     FM060900 19005KT P6SM OVC025=



000
FTUS43 KDVN 051408 AAA
TAFMLI
TAF AMD
KMLI 051408Z 0514/0612 33009KT P6SM OVC020
     FM051500 28005KT P6SM BKN180
     FM060500 VRB04KT P6SM VCSH OVC030
     FM060900 19005KT P6SM OVC025=



000
FTUS43 KDVN 051407 AAB
TAFDBQ
TAF AMD
KDBQ 051407Z 0514/0612 33009KT 5SM BR SCT016
     FM051500 28005KT P6SM OVC100
     FM060500 20007KT 5SM -SHSN OVC030
     FM060900 21009KT P6SM OVC025=



000
FTUS43 KDVN 051306 AAA
TAFDBQ
TAF AMD
KDBQ 051306Z 0513/0612 33009KT P6SM SCT016
     FM051400 28005KT P6SM OVC100
     FM060500 20007KT 5SM -SHSN OVC030
     FM060900 21009KT P6SM OVC025=



000
FTUS43 KDVN 051306 AAA
TAFDBQ
TAF AMD
KDBQ 051306Z 0513/0612 33009KT P6SM SCT016
     FM051400 28005KT P6SM OVC100
     FM060500 20007KT 5SM -SHSN OVC030
     FM060900 21009KT P6SM OVC025=



000
FTUS43 KDVN 051133
TAFMLI
TAF
KMLI 051133Z 0512/0612 33009KT P6SM OVC020
     FM051300 28005KT P6SM BKN180
     FM060500 VRB04KT P6SM VCSH OVC030
     FM060900 19005KT P6SM OVC025=



000
FTUS43 KDVN 051133
TAFBRL
TAF
KBRL 051133Z 0512/0612 33006KT P6SM SCT018
     FM051300 30005KT P6SM BKN180
     FM060500 VRB04KT P6SM VCSH OVC050
     FM060900 19005KT P6SM OVC040=



000
FTUS43 KDVN 051133
TAFDBQ
TAF
KDBQ 051133Z 0512/0612 33009KT P6SM BKN016
     FM051400 28005KT P6SM OVC100
     FM060500 20007KT 5SM -SHSN OVC030
     FM060900 21009KT P6SM OVC025=



000
FTUS43 KDVN 051133
TAFCID
TAF
KCID 051133Z 0512/0612 33007KT P6SM SCT018
     FM051800 27005KT P6SM OVC100
     FM060100 18005KT 5SM -SHSN OVC040
     FM060600 17005KT P6SM OVC035=



000
FTUS43 KDVN 051133
TAFDBQ
TAF
KDBQ 051133Z 0512/0612 33009KT P6SM BKN016
     FM051400 28005KT P6SM OVC100
     FM060500 20007KT 5SM -SHSN OVC030
     FM060900 21009KT P6SM OVC025=



000
FTUS43 KDVN 051133
TAFBRL
TAF
KBRL 051133Z 0512/0612 33006KT P6SM SCT018
     FM051300 30005KT P6SM BKN180
     FM060500 VRB04KT P6SM VCSH OVC050
     FM060900 19005KT P6SM OVC040=



000
FTUS43 KDVN 051133
TAFCID
TAF
KCID 051133Z 0512/0612 33007KT P6SM SCT018
     FM051800 27005KT P6SM OVC100
     FM060100 18005KT 5SM -SHSN OVC040
     FM060600 17005KT P6SM OVC035=



000
FTUS43 KDVN 051133
TAFMLI
TAF
KMLI 051133Z 0512/0612 33009KT P6SM OVC020
     FM051300 28005KT P6SM BKN180
     FM060500 VRB04KT P6SM VCSH OVC030
     FM060900 19005KT P6SM OVC025=



000
FTUS43 KDVN 051011 AAA
TAFDBQ
TAF AMD
KDBQ 051011Z 0510/0606 33009KT P6SM OVC015
     FM051200 21004KT P6SM BKN150
     FM052300 17006KT P6SM OVC060
     FM060300 20010KT P6SM VCSH OVC035=



000
FTUS43 KDVN 051011 AAA
TAFDBQ
TAF AMD
KDBQ 051011Z 0510/0606 33009KT P6SM OVC015
     FM051200 21004KT P6SM BKN150
     FM052300 17006KT P6SM OVC060
     FM060300 20010KT P6SM VCSH OVC035=



000
FTUS43 KDVN 050904 AAA
TAFBRL
TAF AMD
KBRL 050904Z 0509/0606 31009KT P6SM BKN020
     FM051000 30007KT P6SM SCT250
     FM051600 21004KT P6SM BKN150
     FM052300 17006KT P6SM OVC060
     FM060300 20010KT P6SM VCSH OVC035=



000
FTUS43 KDVN 050859 AAA
TAFCID
TAF AMD
KCID 050859Z 0509/0606 30007KT P6SM SCT250
     FM051500 21004KT P6SM BKN150
     FM052100 17006KT P6SM OVC060
     FM060100 20010KT P6SM VCSH OVC035=



000
FTUS43 KDVN 050537
TAFCID
TAF
KCID 050537Z 0506/0606 30013KT P6SM SCT018 BKN025
      TEMPO 0506/0508 BKN018
     FM050900 30007KT P6SM SCT250
     FM051500 21004KT P6SM BKN150
     FM052100 17006KT P6SM OVC060
     FM060100 20010KT P6SM VCSH OVC035=



000
FTUS43 KDVN 050537
TAFDBQ
TAF
KDBQ 050537Z 0506/0606 32012KT P6SM SCT012 OVC022
      TEMPO 0506/0509 BKN012
     FM051000 30007KT P6SM SCT250
     FM051600 21004KT P6SM BKN150
     FM052300 17006KT P6SM OVC060
     FM060300 20010KT P6SM VCSH OVC035=



000
FTUS43 KDVN 050537
TAFBRL
TAF
KBRL 050537Z 0506/0606 31013KT P6SM SCT020 BKN040
      TEMPO 0506/0509 BKN020
     FM051000 30007KT P6SM SCT250
     FM051600 21004KT P6SM BKN150
     FM052300 17006KT P6SM OVC060
     FM060300 20010KT P6SM VCSH OVC035=



000
FTUS43 KDVN 050537
TAFMLI
TAF
KMLI 050537Z 0506/0606 31013KT P6SM SCT015 OVC025
      TEMPO 0506/0510 BKN015
     FM051100 30007KT P6SM SCT250
     FM051600 21004KT P6SM BKN150
     FM052300 17006KT P6SM OVC060
     FM060300 20010KT P6SM VCSH OVC035=



000
FTUS43 KDVN 050537
TAFMLI
TAF
KMLI 050537Z 0506/0606 31013KT P6SM SCT015 OVC025
      TEMPO 0506/0510 BKN015
     FM051100 30007KT P6SM SCT250
     FM051600 21004KT P6SM BKN150
     FM052300 17006KT P6SM OVC060
     FM060300 20010KT P6SM VCSH OVC035=



000
FTUS43 KDVN 050537
TAFCID
TAF
KCID 050537Z 0506/0606 30013KT P6SM SCT018 BKN025
      TEMPO 0506/0508 BKN018
     FM050900 30007KT P6SM SCT250
     FM051500 21004KT P6SM BKN150
     FM052100 17006KT P6SM OVC060
     FM060100 20010KT P6SM VCSH OVC035=



000
FTUS43 KDVN 050537
TAFDBQ
TAF
KDBQ 050537Z 0506/0606 32012KT P6SM SCT012 OVC022
      TEMPO 0506/0509 BKN012
     FM051000 30007KT P6SM SCT250
     FM051600 21004KT P6SM BKN150
     FM052300 17006KT P6SM OVC060
     FM060300 20010KT P6SM VCSH OVC035=



000
FTUS43 KDVN 050537
TAFBRL
TAF
KBRL 050537Z 0506/0606 31013KT P6SM SCT020 BKN040
      TEMPO 0506/0509 BKN020
     FM051000 30007KT P6SM SCT250
     FM051600 21004KT P6SM BKN150
     FM052300 17006KT P6SM OVC060
     FM060300 20010KT P6SM VCSH OVC035=



000
FTUS43 KDVN 050506 AAA
TAFBRL
TAF AMD
KBRL 050506Z 0505/0524 30010G16KT P6SM SCT025 BKN040
     FM050630 31013KT P6SM SCT018 BKN025
     FM050900 29007KT P6SM SCT250
     FM051500 21004KT P6SM BKN080=



000
FTUS43 KDVN 050506 AAA
TAFBRL
TAF AMD
KBRL 050506Z 0505/0524 30010G16KT P6SM SCT025 BKN040
     FM050630 31013KT P6SM SCT018 BKN025
     FM050900 29007KT P6SM SCT250
     FM051500 21004KT P6SM BKN080=



000
FTUS43 KDVN 050505 AAA
TAFMLI
TAF AMD
KMLI 050505Z 0505/0524 30009KT P6SM -SN SCT025 BKN060
     FM050600 31013KT P6SM SCT018 BKN025
      TEMPO 0507/0509 BKN018
     FM051000 29007KT P6SM SCT250
     FM051500 21004KT P6SM BKN080=



000
FTUS43 KDVN 050505 AAA
TAFMLI
TAF AMD
KMLI 050505Z 0505/0524 30009KT P6SM -SN SCT025 BKN060
     FM050600 31013KT P6SM SCT018 BKN025
      TEMPO 0507/0509 BKN018
     FM051000 29007KT P6SM SCT250
     FM051500 21004KT P6SM BKN080=



000
FTUS43 KDVN 050503 AAD
TAFCID
TAF AMD
KCID 050503Z 0505/0524 30013KT P6SM BKN018
     FM050800 31007KT P6SM SCT250
     FM051500 21004KT P6SM BKN080=



000
FTUS43 KDVN 050440 AAC
TAFCID
TAF AMD
KCID 050440Z 0505/0524 30013KT P6SM -SN SCT018 BKN025
      TEMPO 0506/0508 BKN018
     FM050800 31007KT P6SM SCT250
     FM051500 21004KT P6SM BKN080=



000
FTUS43 KDVN 050440 AAC
TAFCID
TAF AMD
KCID 050440Z 0505/0524 30013KT P6SM -SN SCT018 BKN025
      TEMPO 0506/0508 BKN018
     FM050800 31007KT P6SM SCT250
     FM051500 21004KT P6SM BKN080=



000
FTUS43 KDVN 050312 AAB
TAFCID
TAF AMD
KCID 050312Z 0503/0524 30013KT P6SM -SN SCT018 BKN025
      TEMPO 0504/0506 BKN018
     FM050600 31007KT P6SM SCT250
     FM051500 21004KT P6SM BKN080=



000
FTUS43 KDVN 050312 AAB
TAFDBQ
TAF AMD
KDBQ 050312Z 0503/0524 31008KT P6SM -SN OVC015
     FM050600 31007KT P6SM SCT250
     FM051500 21004KT P6SM BKN080=



000
FTUS43 KDVN 050312 AAB
TAFCID
TAF AMD
KCID 050312Z 0503/0524 30013KT P6SM -SN SCT018 BKN025
      TEMPO 0504/0506 BKN018
     FM050600 31007KT P6SM SCT250
     FM051500 21004KT P6SM BKN080=



000
FTUS43 KDVN 050312 AAB
TAFDBQ
TAF AMD
KDBQ 050312Z 0503/0524 31008KT P6SM -SN OVC015
     FM050600 31007KT P6SM SCT250
     FM051500 21004KT P6SM BKN080=



    US Dept of Commerce
    National Oceanic and Atmospheric Administration
    National Weather Service
    1325 East West Highway
    Silver Spring, MD 20910
    Page Author: NWS Internet Services Team
Disclaimer
Information Quality
Credits
Glossary
Privacy Policy
Freedom of Information Act (FOIA)
About Us
Career Opportunities